Time;durP1;ratioP1;P1;durP2;ratioP2;P2;SDS_P1;SDS_P2;PMS_P1;PMS_P2;Temp;Humidity;BMP_temperature;BMP_pressure;BME280_temperature;BME280_humidity;BME280_pressure;Samples;Min_cycle;Max_cycle;Signal;HPM_P1;HPM_P2
2023/03/11 00:02:14;;;;;;;6.83;3.47;;;3.80;99.90;;;;;;5010871;28;20210;-39
2023/03/11 00:04:40;;;;;;;1.80;1.40;;;3.80;99.90;;;;;;4992632;28;20203;-40
2023/03/11 00:07:08;;;;;;;1.60;1.30;;;3.70;99.90;;;;;;5001021;28;20184;-41
2023/03/11 00:09:34;;;;;;;1.33;1.23;;;3.70;99.90;;;;;;5010507;28;20183;-36
2023/03/11 00:12:01;;;;;;;2.23;1.30;;;3.70;99.90;;;;;;4993093;28;20238;-38
2023/03/11 00:14:27;;;;;;;1.50;1.33;;;3.60;99.90;;;;;;4992046;28;20206;-39
2023/03/11 00:16:52;;;;;;;1.87;1.27;;;3.60;99.90;;;;;;4976517;28;20179;-37
2023/03/11 00:19:18;;;;;;;1.30;1.10;;;3.50;99.90;;;;;;5009993;28;20230;-39
2023/03/11 00:21:44;;;;;;;1.40;1.10;;;3.50;99.90;;;;;;5010390;28;20515;-38
2023/03/11 00:24:10;;;;;;;1.77;1.20;;;3.50;99.90;;;;;;4992530;28;20309;-37
2023/03/11 00:26:36;;;;;;;0.90;0.90;;;3.40;99.90;;;;;;4994307;28;20186;-37
2023/03/11 00:29:02;;;;;;;1.10;1.00;;;3.30;99.90;;;;;;4976763;28;20176;-35
2023/03/11 00:31:27;;;;;;;2.40;1.00;;;3.30;99.90;;;;;;4989800;28;20207;-39
2023/03/11 00:33:56;;;;;;;2.10;1.10;;;3.30;99.90;;;;;;4996280;28;20219;-37
2023/03/11 00:36:30;;;;;;;3.17;1.40;;;3.20;99.90;;;;;;4995243;28;20171;-37
2023/03/11 00:38:57;;;;;;;1.47;1.13;;;3.20;99.90;;;;;;4988926;28;20178;-40
2023/03/11 00:41:23;;;;;;;1.87;1.27;;;3.20;99.90;;;;;;5004420;28;20198;-35
2023/03/11 00:43:49;;;;;;;3.30;1.83;;;3.20;99.90;;;;;;4995595;28;20195;-41
2023/03/11 00:46:14;;;;;;;1.67;1.50;;;3.20;99.90;;;;;;4980067;28;20194;-40
2023/03/11 00:48:40;;;;;;;1.53;1.30;;;3.20;99.90;;;;;;5011901;28;20183;-39
2023/03/11 00:51:10;;;;;;;1.30;1.20;;;3.20;99.90;;;;;;4995296;28;20183;-40
2023/03/11 00:53:36;;;;;;;3.10;1.20;;;3.20;99.90;;;;;;4979345;28;20290;-39
2023/03/11 00:56:13;;;;;;;3.87;1.60;;;3.20;99.90;;;;;;4996010;28;20191;-40
2023/03/11 00:58:42;;;;;;;2.47;1.20;;;3.20;99.90;;;;;;5012159;28;20179;-39
2023/03/11 01:01:11;;;;;;;1.63;1.20;;;3.20;99.90;;;;;;4995897;28;20179;-36
2023/03/11 01:03:37;;;;;;;1.97;1.40;;;3.20;99.90;;;;;;4995418;28;20261;-37
2023/03/11 01:06:04;;;;;;;1.37;1.00;;;3.20;99.90;;;;;;4995578;28;20187;-41
2023/03/11 01:08:30;;;;;;;3.63;1.40;;;3.20;99.90;;;;;;5008524;28;20206;-38
2023/03/11 01:10:57;;;;;;;1.90;1.40;;;3.10;99.90;;;;;;4995866;28;20187;-39
2023/03/11 01:13:24;;;;;;;1.50;1.40;;;3.20;99.90;;;;;;4995555;28;20215;-36
2023/03/11 01:15:51;;;;;;;2.33;1.40;;;3.20;99.90;;;;;;4994814;28;20232;-38
2023/03/11 01:18:17;;;;;;;2.47;1.33;;;3.20;99.90;;;;;;4978988;28;20298;-33
2023/03/11 01:20:43;;;;;;;1.57;1.20;;;3.20;99.90;;;;;;4988030;28;20263;-39
2023/03/11 01:23:11;;;;;;;1.60;1.17;;;3.20;99.90;;;;;;5008754;28;20214;-39
2023/03/11 01:25:37;;;;;;;1.73;1.30;;;3.30;99.90;;;;;;4994102;28;20202;-38
2023/03/11 01:28:04;;;;;;;3.00;1.20;;;3.30;99.90;;;;;;4978302;28;20301;-39
2023/03/11 01:30:30;;;;;;;3.30;1.20;;;3.30;99.90;;;;;;4995028;28;20201;-36
2023/03/11 01:32:57;;;;;;;2.00;1.10;;;3.30;99.90;;;;;;4994350;28;20214;-35
2023/03/11 01:35:25;;;;;;;1.67;1.30;;;3.30;99.90;;;;;;4994925;28;20214;-35
2023/03/11 01:37:52;;;;;;;1.73;1.40;;;3.40;99.90;;;;;;4988075;28;20672;-39
2023/03/11 01:40:45;;;;;;;1.40;1.17;;;3.30;99.90;;;;;;4977118;28;20648;-38
2023/03/11 01:43:44;;;;;;;2.03;1.10;;;3.30;99.90;;;;;;4995522;28;20186;-38
2023/03/11 01:46:32;;;;;;;5.27;1.23;;;3.40;99.90;;;;;;4983791;28;20183;-40
2023/03/11 01:49:00;;;;;;;2.23;1.47;;;3.40;99.90;;;;;;5010858;28;20194;-41
2023/03/11 01:51:36;;;;;;;1.73;1.23;;;3.30;99.90;;;;;;4995057;28;20175;-39
2023/03/11 01:54:12;;;;;;;1.33;1.23;;;3.30;99.90;;;;;;4995021;28;20207;-38
2023/03/11 01:56:41;;;;;;;1.60;1.20;;;3.20;99.90;;;;;;4975413;28;20202;-37
2023/03/11 01:59:10;;;;;;;2.23;1.30;;;3.20;99.90;;;;;;4994840;28;20175;-39
2023/03/11 02:01:44;;;;;;;2.60;1.20;;;3.30;99.90;;;;;;4979252;28;20207;-38
2023/03/11 02:04:11;;;;;;;2.27;1.50;;;3.20;99.90;;;;;;4994385;28;20245;-38
2023/03/11 02:06:37;;;;;;;3.03;1.43;;;3.30;99.90;;;;;;4974466;28;20180;-39
2023/03/11 02:09:03;;;;;;;1.93;1.63;;;3.30;99.90;;;;;;4990363;28;20183;-39
2023/03/11 02:11:30;;;;;;;3.07;1.20;;;3.30;99.90;;;;;;4994418;28;20179;-36
2023/03/11 02:14:01;;;;;;;2.17;1.47;;;3.20;99.90;;;;;;4994119;28;20261;-38
2023/03/11 02:16:27;;;;;;;1.30;1.20;;;3.20;99.90;;;;;;4975031;28;20186;-37
2023/03/11 02:18:53;;;;;;;2.13;1.50;;;3.20;99.90;;;;;;4977426;28;20298;-37
2023/03/11 02:21:31;;;;;;;2.50;1.50;;;3.20;99.90;;;;;;4994296;28;20214;-36
2023/03/11 02:24:24;;;;;;;1.67;1.30;;;3.20;99.90;;;;;;5011536;28;20206;-38
2023/03/11 02:27:09;;;;;;;1.97;1.40;;;3.20;99.90;;;;;;4994406;28;20179;-37
2023/03/11 02:29:36;;;;;;;2.80;1.60;;;3.20;99.90;;;;;;4991865;28;20180;-38
2023/03/11 02:32:05;;;;;;;1.80;1.50;;;3.20;99.90;;;;;;4977366;28;20187;-38
2023/03/11 02:34:33;;;;;;;1.80;1.50;;;3.20;99.90;;;;;;5010373;28;20206;-40
2023/03/11 02:37:00;;;;;;;2.77;1.30;;;3.10;99.90;;;;;;4993989;28;20176;-39
2023/03/11 02:39:30;;;;;;;1.97;1.50;;;3.10;99.90;;;;;;4986809;28;20198;-35
2023/03/11 02:41:58;;;;;;;2.53;1.70;;;3.10;99.90;;;;;;4988443;28;20187;-37
2023/03/11 02:44:24;;;;;;;2.20;1.47;;;3.00;99.90;;;;;;5011632;28;20261;-37
2023/03/11 02:46:51;;;;;;;2.43;1.93;;;3.00;99.90;;;;;;4994178;28;20248;-40
2023/03/11 02:49:19;;;;;;;1.93;1.30;;;3.00;99.90;;;;;;4993532;28;20171;-37
2023/03/11 02:51:45;;;;;;;1.53;1.20;;;2.90;99.90;;;;;;4993022;28;20171;-36
2023/03/11 02:54:11;;;;;;;1.17;1.07;;;2.90;99.90;;;;;;4977553;28;20211;-37
2023/03/11 02:56:37;;;;;;;1.93;1.27;;;2.90;99.90;;;;;;4993752;28;20194;-38
2023/03/11 02:59:03;;;;;;;1.40;1.30;;;2.90;99.90;;;;;;4993591;28;20266;-35
2023/03/11 03:01:29;;;;;;;1.40;1.30;;;2.80;99.90;;;;;;4993842;28;20203;-36
2023/03/11 03:03:55;;;;;;;2.00;1.20;;;2.80;99.90;;;;;;4993417;28;20261;-38
2023/03/11 03:06:21;;;;;;;1.80;1.10;;;2.70;99.90;;;;;;4976115;28;20192;-39
2023/03/11 03:08:50;;;;;;;1.70;1.40;;;2.70;99.90;;;;;;4993292;28;20175;-38
2023/03/11 03:11:17;;;;;;;2.70;1.20;;;2.70;99.90;;;;;;5009997;28;20191;-38
2023/03/11 03:13:42;;;;;;;1.70;1.30;;;2.70;99.90;;;;;;5009538;28;20230;-39
2023/03/11 03:16:08;;;;;;;1.20;1.10;;;2.70;99.90;;;;;;4993353;28;20225;-39
2023/03/11 03:18:35;;;;;;;1.70;1.13;;;2.60;99.90;;;;;;5010996;28;20185;-37
2023/03/11 03:21:01;;;;;;;1.50;1.03;;;2.60;99.90;;;;;;4993266;28;20186;-38
2023/03/11 03:23:27;;;;;;;1.27;1.10;;;2.60;99.90;;;;;;5010958;28;20183;-39
2023/03/11 03:25:53;;;;;;;1.77;1.17;;;2.60;99.90;;;;;;4993162;28;20183;-38
2023/03/11 03:28:19;;;;;;;1.93;1.40;;;2.50;99.90;;;;;;4977858;28;20183;-36
2023/03/11 03:30:46;;;;;;;2.07;1.30;;;2.60;99.90;;;;;;4968862;28;20270;-39
2023/03/11 03:33:13;;;;;;;2.60;1.37;;;2.60;99.90;;;;;;5010149;28;20214;-37
2023/03/11 03:35:43;;;;;;;2.43;1.33;;;2.60;99.90;;;;;;4976681;28;20205;-37
2023/03/11 03:38:15;;;;;;;1.90;1.23;;;2.60;99.90;;;;;;4982421;28;20183;-39
2023/03/11 03:40:46;;;;;;;1.43;1.10;;;2.50;99.90;;;;;;4977553;28;20210;-38
2023/03/11 03:43:13;;;;;;;1.93;1.20;;;2.50;99.90;;;;;;4993701;28;20182;-37
2023/03/11 03:45:41;;;;;;;1.57;1.10;;;2.50;99.90;;;;;;4993002;28;20203;-38
2023/03/11 03:48:07;;;;;;;2.23;1.10;;;2.50;99.90;;;;;;4992858;28;20185;-39
2023/03/11 03:50:39;;;;;;;3.27;1.27;;;2.50;99.90;;;;;;5009172;28;20215;-35
2023/03/11 03:53:06;;;;;;;3.07;1.60;;;2.40;99.90;;;;;;4977176;28;20202;-39
2023/03/11 03:55:33;;;;;;;1.87;1.40;;;2.40;99.90;;;;;;4994457;28;20214;-38
2023/03/11 03:57:59;;;;;;;3.00;1.27;;;2.30;99.90;;;;;;4978349;28;20214;-39
2023/03/11 04:00:29;;;;;;;1.97;1.60;;;2.20;99.90;;;;;;4995069;28;20175;-39
2023/03/11 04:03:00;;;;;;;2.17;1.30;;;2.00;99.90;;;;;;4998571;28;20179;-33
2023/03/11 04:05:34;;;;;;;2.00;1.53;;;1.90;99.90;;;;;;4998666;28;20566;-36
2023/03/11 04:08:00;;;;;;;2.73;1.30;;;1.70;99.90;;;;;;5008889;28;20171;-38
2023/03/11 04:10:27;;;;;;;2.03;1.33;;;1.60;99.90;;;;;;4998743;28;20237;-35
2023/03/11 04:12:53;;;;;;;1.90;1.37;;;1.60;99.90;;;;;;4982075;28;20206;-36
2023/03/11 04:15:19;;;;;;;2.90;1.60;;;1.60;99.90;;;;;;4981814;28;20202;-38
2023/03/11 04:17:47;;;;;;;3.47;1.43;;;1.50;99.90;;;;;;4998304;28;20202;-37
2023/03/11 04:20:13;;;;;;;2.43;1.50;;;1.50;99.90;;;;;;4998308;28;20548;-37
2023/03/11 04:22:40;;;;;;;2.73;1.10;;;1.40;99.90;;;;;;4995807;28;20210;-38
2023/03/11 04:25:07;;;;;;;1.50;1.20;;;1.40;99.90;;;;;;5000687;28;20213;-38
2023/03/11 04:27:33;;;;;;;1.47;1.10;;;1.40;99.90;;;;;;4997793;28;20232;-37
2023/03/11 04:30:01;;;;;;;1.03;0.90;;;1.40;99.90;;;;;;4998421;28;20190;-37
2023/03/11 04:32:27;;;;;;;3.23;1.33;;;1.40;99.90;;;;;;5014275;28;20213;-38
2023/03/11 04:34:53;;;;;;;2.77;1.20;;;1.40;99.90;;;;;;4996927;28;20198;-41
2023/03/11 04:37:19;;;;;;;8.53;1.40;;;1.30;99.90;;;;;;5013166;28;20247;-41
2023/03/11 04:39:45;;;;;;;1.93;1.20;;;1.40;99.90;;;;;;4991369;28;20190;-40
2023/03/11 04:42:12;;;;;;;3.00;1.40;;;1.40;99.90;;;;;;4996195;28;20187;-40
2023/03/11 04:44:41;;;;;;;2.87;1.10;;;1.50;99.90;;;;;;4996059;28;20186;-41
2023/03/11 04:47:07;;;;;;;2.60;1.40;;;1.50;99.90;;;;;;4996361;28;20189;-41
2023/03/11 04:49:33;;;;;;;2.17;1.67;;;1.50;99.90;;;;;;4996145;28;20182;-40
2023/03/11 04:51:59;;;;;;;3.40;1.50;;;1.50;99.90;;;;;;4995964;28;20191;-41
2023/03/11 04:54:25;;;;;;;2.00;1.20;;;1.50;99.90;;;;;;4995728;28;20220;-41
2023/03/11 04:56:52;;;;;;;2.67;1.20;;;1.50;99.90;;;;;;5012033;28;20205;-39
2023/03/11 04:59:18;;;;;;;1.27;1.00;;;1.50;99.90;;;;;;4995763;28;20265;-40
2023/03/11 05:01:45;;;;;;;3.67;1.50;;;1.50;99.90;;;;;;4995768;28;20179;-37
2023/03/11 05:04:11;;;;;;;1.60;1.50;;;1.40;99.90;;;;;;4996066;28;20199;-34
2023/03/11 05:06:38;;;;;;;3.17;1.23;;;1.40;99.90;;;;;;4991572;28;20183;-36
2023/03/11 05:09:05;;;;;;;1.70;0.90;;;1.40;99.90;;;;;;4984592;28;20177;-32
2023/03/11 05:11:34;;;;;;;2.70;1.30;;;1.30;99.90;;;;;;4995431;28;20187;-37
2023/03/11 05:14:00;;;;;;;1.30;1.20;;;1.20;99.90;;;;;;4994434;28;20305;-39
2023/03/11 05:16:27;;;;;;;3.10;1.20;;;1.10;99.90;;;;;;4992032;28;20268;-38
2023/03/11 05:18:53;;;;;;;1.80;1.20;;;1.00;99.90;;;;;;4985566;28;20202;-40
2023/03/11 05:21:19;;;;;;;1.70;1.13;;;1.00;99.90;;;;;;5004851;28;20183;-35
2023/03/11 05:23:44;;;;;;;2.03;1.23;;;1.00;99.90;;;;;;4978722;28;20181;-40
2023/03/11 05:26:11;;;;;;;2.70;1.50;;;0.90;99.90;;;;;;4995480;28;20218;-41
2023/03/11 05:28:40;;;;;;;3.13;1.30;;;1.00;99.90;;;;;;4979856;28;20194;-40
2023/03/11 05:31:08;;;;;;;1.73;1.20;;;0.90;99.90;;;;;;5012763;28;20185;-41
2023/03/11 05:33:35;;;;;;;2.07;1.27;;;0.80;99.90;;;;;;4995197;28;20208;-40
2023/03/11 05:36:08;;;;;;;2.43;1.27;;;0.90;99.90;;;;;;4994777;28;20722;-38
2023/03/11 05:38:36;;;;;;;2.87;1.40;;;0.90;99.90;;;;;;4993606;28;20177;-40
2023/03/11 05:41:02;;;;;;;4.80;1.30;;;0.90;99.90;;;;;;4978618;28;20193;-40
2023/03/11 05:43:28;;;;;;;2.33;1.50;;;0.90;99.90;;;;;;4995160;28;20192;-39
2023/03/11 05:45:54;;;;;;;4.13;1.63;;;0.80;99.90;;;;;;4994775;28;20268;-40
2023/03/11 05:48:20;;;;;;;3.63;1.40;;;0.70;99.90;;;;;;4995261;28;20265;-40
2023/03/11 05:50:46;;;;;;;2.60;1.40;;;0.70;99.90;;;;;;4994472;28;20209;-39
2023/03/11 05:53:12;;;;;;;1.50;1.20;;;0.70;99.90;;;;;;5000508;28;20247;-40
2023/03/11 05:55:38;;;;;;;3.07;1.53;;;0.70;99.90;;;;;;4995000;28;20241;-37
2023/03/11 05:58:04;;;;;;;2.90;1.47;;;0.70;99.90;;;;;;5010977;28;20194;-36
2023/03/11 06:00:30;;;;;;;2.47;1.30;;;0.70;99.90;;;;;;5011629;28;20228;-39
2023/03/11 06:03:00;;;;;;;1.77;1.20;;;0.70;99.90;;;;;;4994763;28;20196;-38
2023/03/11 06:05:26;;;;;;;1.83;1.30;;;0.80;99.90;;;;;;5011732;28;20233;-37
2023/03/11 06:07:53;;;;;;;2.30;1.47;;;0.80;99.90;;;;;;4992657;28;20180;-38
2023/03/11 06:10:21;;;;;;;2.60;1.50;;;0.70;99.90;;;;;;4978545;28;20182;-37
2023/03/11 06:12:47;;;;;;;3.87;1.60;;;0.80;99.90;;;;;;4978165;28;20197;-35
2023/03/11 06:15:20;;;;;;;3.63;1.83;;;0.70;99.90;;;;;;4993526;28;20224;-36
2023/03/11 06:17:46;;;;;;;2.97;2.00;;;0.80;99.90;;;;;;4994220;28;20181;-39
2023/03/11 06:20:12;;;;;;;4.17;2.30;;;0.80;99.90;;;;;;4994270;28;20208;-36
2023/03/11 06:22:39;;;;;;;3.33;2.03;;;0.90;99.90;;;;;;4977604;28;20185;-36
2023/03/11 06:25:05;;;;;;;5.70;1.93;;;1.00;99.90;;;;;;4993469;28;20207;-37
2023/03/11 06:27:32;;;;;;;4.17;1.70;;;1.00;99.90;;;;;;4977419;28;20681;-40
2023/03/11 06:29:58;;;;;;;3.37;2.13;;;1.00;99.90;;;;;;4974739;28;20217;-37
2023/03/11 06:32:24;;;;;;;4.57;2.27;;;1.00;99.90;;;;;;4994071;28;20240;-37
2023/03/11 06:34:51;;;;;;;3.90;2.47;;;1.10;99.90;;;;;;4993940;28;20232;-35
2023/03/11 06:37:19;;;;;;;5.30;4.23;;;1.10;99.90;;;;;;5006392;28;20184;-36
2023/03/11 06:39:46;;;;;;;6.80;4.07;;;1.20;99.90;;;;;;4977144;28;20177;-37
2023/03/11 06:42:19;;;;;;;7.93;4.40;;;1.20;99.90;;;;;;4978082;28;20182;-36
2023/03/11 06:44:47;;;;;;;6.47;4.03;;;1.20;99.90;;;;;;5009258;28;20202;-35
2023/03/11 06:47:13;;;;;;;7.50;3.50;;;1.30;99.90;;;;;;4993434;28;20276;-38
2023/03/11 06:49:41;;;;;;;7.83;4.00;;;1.40;99.90;;;;;;4993425;28;20269;-38
2023/03/11 06:52:08;;;;;;;4.83;2.30;;;1.60;99.90;;;;;;4977653;28;20178;-39
2023/03/11 06:54:35;;;;;;;3.13;1.77;;;1.60;99.90;;;;;;4993694;28;20194;-39
2023/03/11 06:57:01;;;;;;;4.03;1.70;;;1.70;99.90;;;;;;4992971;28;20222;-40
2023/03/11 06:59:27;;;;;;;6.53;2.00;;;1.80;99.90;;;;;;4975654;28;20186;-40
2023/03/11 07:01:54;;;;;;;16.00;10.63;;;1.90;99.90;;;;;;4993404;28;20185;-35
2023/03/11 07:04:20;;;;;;;7.03;6.10;;;1.90;99.90;;;;;;4977011;28;20256;-34
2023/03/11 07:06:46;;;;;;;3.00;2.30;;;1.90;99.90;;;;;;4989699;28;20238;-40
2023/03/11 07:09:21;;;;;;;3.73;1.50;;;2.00;99.90;;;;;;4990027;28;20191;-35
2023/03/11 07:11:46;;;;;;;4.93;1.30;;;2.00;99.90;;;;;;4996054;28;20198;-37
2023/03/11 07:14:18;;;;;;;4.20;1.77;;;2.00;99.90;;;;;;4987224;28;20211;-39
2023/03/11 07:16:48;;;;;;;3.83;2.13;;;2.00;99.90;;;;;;4985806;28;20569;-38
2023/03/11 07:19:23;;;;;;;3.23;2.03;;;2.10;99.90;;;;;;4983528;28;20204;-38
2023/03/11 07:21:50;;;;;;;2.97;1.50;;;2.10;99.90;;;;;;4986468;28;20186;-34
2023/03/11 07:24:16;;;;;;;5.97;1.50;;;2.10;99.90;;;;;;4988662;28;20210;-37
2023/03/11 07:26:41;;;;;;;5.63;1.60;;;2.20;99.90;;;;;;4987629;28;20183;-38
2023/03/11 07:29:08;;;;;;;3.97;1.53;;;2.20;99.90;;;;;;4997037;28;20195;-39
2023/03/11 07:31:35;;;;;;;3.13;1.53;;;2.30;99.90;;;;;;4987983;28;20204;-37
2023/03/11 07:34:04;;;;;;;2.97;1.30;;;2.40;99.90;;;;;;5006158;28;20240;-37
2023/03/11 07:36:30;;;;;;;7.53;1.90;;;2.50;99.90;;;;;;4991411;28;20192;-34
2023/03/11 07:39:04;;;;;;;3.50;1.70;;;2.60;99.90;;;;;;4991127;28;20259;-40
2023/03/11 07:41:33;;;;;;;2.97;1.90;;;2.70;99.90;;;;;;4992698;28;20172;-34
2023/03/11 07:44:00;;;;;;;3.90;1.50;;;2.70;99.90;;;;;;5010716;28;20230;-41
2023/03/11 07:46:28;;;;;;;4.57;1.30;;;2.80;99.90;;;;;;4983814;28;20190;-35
2023/03/11 07:48:55;;;;;;;6.37;2.00;;;2.80;99.90;;;;;;5011420;28;20229;-36
2023/03/11 07:51:29;;;;;;;3.47;1.07;;;2.80;99.90;;;;;;5010595;28;20274;-38
2023/03/11 07:53:57;;;;;;;2.43;1.07;;;2.80;99.90;;;;;;4993258;28;20214;-38
2023/03/11 07:56:24;;;;;;;2.13;1.27;;;2.80;99.90;;;;;;4986098;28;20194;-37
2023/03/11 07:58:51;;;;;;;3.73;1.50;;;2.90;99.90;;;;;;4984497;28;20278;-37
2023/03/11 08:01:19;;;;;;;5.93;1.50;;;2.90;99.90;;;;;;4991776;28;20191;-38
2023/03/11 08:03:48;;;;;;;4.07;1.63;;;3.10;99.90;;;;;;4990649;28;20187;-35
2023/03/11 08:06:19;;;;;;;3.40;1.27;;;3.20;99.90;;;;;;4990720;28;20183;-39
2023/03/11 08:08:45;;;;;;;5.73;1.30;;;3.20;99.90;;;;;;5006680;28;20203;-38
2023/03/11 08:11:12;;;;;;;6.00;1.40;;;3.40;99.90;;;;;;5007336;28;20191;-41
2023/03/11 08:13:43;;;;;;;2.60;1.20;;;3.50;99.90;;;;;;4991748;28;20219;-42
2023/03/11 08:16:11;;;;;;;4.50;1.80;;;3.60;99.90;;;;;;4989245;28;20259;-41
2023/03/11 08:18:37;;;;;;;6.63;2.70;;;3.70;99.90;;;;;;5006881;28;20207;-40
2023/03/11 08:21:08;;;;;;;14.67;5.57;;;3.70;99.90;;;;;;4989846;28;20179;-41
2023/03/11 08:23:34;;;;;;;32.47;11.03;;;3.60;99.90;;;;;;4983891;28;20211;-41
2023/03/11 08:26:05;;;;;;;15.87;5.10;;;3.50;99.90;;;;;;5010638;28;20225;-41
2023/03/11 08:28:30;;;;;;;9.40;2.90;;;3.50;99.90;;;;;;4975400;28;20198;-40
2023/03/11 08:30:56;;;;;;;4.20;1.60;;;3.60;99.90;;;;;;5009859;28;20187;-35
2023/03/11 08:33:22;;;;;;;5.10;2.00;;;3.60;99.90;;;;;;4995266;28;20211;-41
2023/03/11 08:35:48;;;;;;;4.50;1.53;;;3.60;99.90;;;;;;4991043;28;20191;-41
2023/03/11 08:38:14;;;;;;;6.80;2.00;;;3.50;99.90;;;;;;4992189;28;20180;-41
2023/03/11 08:40:39;;;;;;;3.20;1.43;;;3.40;99.90;;;;;;4993804;28;20188;-40
2023/03/11 08:43:06;;;;;;;3.67;1.60;;;3.50;99.90;;;;;;5001773;28;20198;-42
2023/03/11 08:45:32;;;;;;;2.97;1.33;;;3.70;99.90;;;;;;4981727;28;20617;-40
2023/03/11 08:47:58;;;;;;;3.50;1.27;;;3.90;99.90;;;;;;5010210;28;20188;-41
2023/03/11 08:50:24;;;;;;;2.37;1.30;;;4.20;99.90;;;;;;4978065;28;20203;-39
2023/03/11 08:52:50;;;;;;;6.07;1.73;;;4.40;99.90;;;;;;5000572;28;20261;-40
2023/03/11 08:55:23;;;;;;;2.53;1.30;;;4.50;99.90;;;;;;4999693;28;20211;-41
2023/03/11 08:57:50;;;;;;;3.10;1.27;;;4.70;99.90;;;;;;4991477;28;20286;-40
2023/03/11 09:00:16;;;;;;;4.33;1.23;;;4.80;99.90;;;;;;5007089;28;20171;-39
2023/03/11 09:02:42;;;;;;;2.50;1.40;;;5.00;99.90;;;;;;5007183;28;20205;-41
2023/03/11 09:05:09;;;;;;;2.40;1.50;;;5.20;99.90;;;;;;5003986;28;20208;-42
2023/03/11 09:07:35;;;;;;;2.70;1.20;;;5.40;99.90;;;;;;5004959;28;20327;-41
2023/03/11 09:10:01;;;;;;;2.50;1.03;;;5.40;99.90;;;;;;4989310;28;20279;-42
2023/03/11 09:12:26;;;;;;;3.47;1.53;;;5.50;99.90;;;;;;4995350;28;20208;-41
2023/03/11 09:14:53;;;;;;;5.00;1.30;;;5.30;99.90;;;;;;4991002;28;20196;-41
2023/03/11 09:17:19;;;;;;;4.03;1.30;;;5.40;99.90;;;;;;5007687;28;20190;-41
2023/03/11 09:19:45;;;;;;;5.43;1.50;;;5.60;99.90;;;;;;4982836;28;20187;-41
2023/03/11 09:22:10;;;;;;;3.93;1.70;;;5.70;99.90;;;;;;4988748;28;20187;-41
2023/03/11 09:24:36;;;;;;;1.43;1.10;;;5.90;99.90;;;;;;5003695;28;20345;-39
2023/03/11 09:27:02;;;;;;;1.40;1.10;;;6.00;99.90;;;;;;4986193;28;20189;-40
2023/03/11 09:29:29;;;;;;;2.77;1.10;;;5.90;99.90;;;;;;5000423;28;20212;-41
2023/03/11 09:31:56;;;;;;;4.97;1.30;;;5.80;99.90;;;;;;4998048;28;20175;-41
2023/03/11 09:34:45;;;;;;;4.10;1.10;;;5.70;99.90;;;;;;4996503;28;20213;-40
2023/03/11 09:37:12;;;;;;;2.47;1.30;;;5.60;99.90;;;;;;5002282;28;20178;-38
2023/03/11 09:39:38;;;;;;;5.37;1.10;;;5.40;99.90;;;;;;4995339;28;20243;-41
2023/03/11 09:42:32;;;;;;;4.37;1.17;;;5.30;99.90;;;;;;5002115;28;20194;-42
2023/03/11 09:45:05;;;;;;;3.93;2.47;;;5.10;99.90;;;;;;4986514;28;20213;-42
2023/03/11 09:48:02;;;;;;;2.93;1.27;;;5.10;99.90;;;;;;5002872;28;20186;-41
2023/03/11 09:50:33;;;;;;;4.27;1.50;;;5.10;99.90;;;;;;5008422;28;20183;-41
2023/03/11 09:53:12;;;;;;;13.90;5.23;;;5.00;99.90;;;;;;4990214;28;20665;-42
2023/03/11 09:55:58;;;;;;;7.37;3.70;;;4.90;99.90;;;;;;5002893;28;20214;-42
2023/03/11 09:58:33;;;;;;;10.17;5.33;;;4.80;99.90;;;;;;5014395;28;20195;-43
2023/03/11 10:01:01;;;;;;;21.00;15.67;;;4.80;99.90;;;;;;5012020;28;20179;-42
2023/03/11 10:03:34;;;;;;;5.73;3.63;;;4.90;99.90;;;;;;4986953;28;20183;-40
2023/03/11 10:06:21;;;;;;;3.80;1.30;;;4.90;99.90;;;;;;4986462;28;20602;-40
2023/03/11 10:08:59;;;;;;;1.93;1.03;;;5.30;99.90;;;;;;4992271;28;20176;-38
2023/03/11 10:11:34;;;;;;;2.63;0.80;;;5.50;99.90;;;;;;5003854;28;20264;-39
2023/03/11 10:14:04;;;;;;;2.77;0.93;;;5.80;99.90;;;;;;4976447;28;20263;-40
2023/03/11 10:16:42;;;;;;;1.77;0.70;;;5.90;99.90;;;;;;4983241;28;20186;-41
2023/03/11 10:19:21;;;;;;;2.87;1.10;;;5.80;99.90;;;;;;5003838;28;20187;-41
2023/03/11 10:22:00;;;;;;;2.10;1.00;;;5.70;99.90;;;;;;4988203;28;20224;-41
2023/03/11 10:24:39;;;;;;;1.07;0.90;;;5.50;99.90;;;;;;4987710;28;20205;-42
2023/03/11 10:27:16;;;;;;;2.30;1.30;;;5.50;99.90;;;;;;4985702;28;20192;-38
2023/03/11 10:29:42;;;;;;;2.07;1.30;;;5.70;99.90;;;;;;5004854;28;20199;-41
2023/03/11 10:32:21;;;;;;;3.73;1.33;;;6.00;99.90;;;;;;4987527;28;20674;-42
2023/03/11 10:34:58;;;;;;;1.20;0.80;;;6.10;99.90;;;;;;4998272;28;20204;-41
2023/03/11 10:37:27;;;;;;;2.00;1.10;;;6.30;99.90;;;;;;4985378;28;20187;-42
2023/03/11 10:39:54;;;;;;;2.90;1.10;;;6.40;99.90;;;;;;4996928;28;20197;-40
2023/03/11 10:42:24;;;;;;;2.00;1.50;;;6.50;99.90;;;;;;4987157;28;20192;-42
2023/03/11 10:44:50;;;;;;;1.47;1.07;;;6.60;99.90;;;;;;4978304;28;20224;-42
2023/03/11 10:47:21;;;;;;;4.07;1.20;;;6.80;99.90;;;;;;5002478;28;20186;-42
2023/03/11 10:49:49;;;;;;;2.73;1.27;;;7.10;99.90;;;;;;4988909;28;20185;-42
2023/03/11 10:52:15;;;;;;;1.73;1.00;;;7.10;99.90;;;;;;5003988;28;20275;-41
2023/03/11 10:54:45;;;;;;;2.17;1.10;;;6.70;99.90;;;;;;4984445;28;20329;-42
2023/03/11 10:57:40;;;;;;;3.33;1.23;;;6.80;99.90;;;;;;4983981;28;20227;-42
2023/03/11 11:00:26;;;;;;;1.93;1.20;;;7.10;99.90;;;;;;4933733;28;20199;-42
2023/03/11 11:02:58;;;;;;;3.03;1.03;;;7.30;99.90;;;;;;4989013;28;20661;-42
2023/03/11 11:05:31;;;;;;;3.47;1.17;;;7.50;99.90;;;;;;4986357;28;20214;-37
2023/03/11 11:08:11;;;;;;;2.20;1.10;;;7.60;99.90;;;;;;5001119;28;20706;-41
2023/03/11 11:11:00;;;;;;;4.07;1.50;;;7.80;99.90;;;;;;4985259;28;20240;-42
2023/03/11 11:13:34;;;;;;;2.57;1.03;;;7.80;99.90;;;;;;5000374;28;20221;-41
2023/03/11 11:16:05;;;;;;;1.83;1.10;;;7.50;99.90;;;;;;5006693;28;20189;-41
2023/03/11 11:18:47;;;;;;;1.73;1.10;;;7.30;99.90;;;;;;4976302;28;20179;-42
2023/03/11 11:21:31;;;;;;;1.67;1.20;;;7.30;99.90;;;;;;4990416;28;20182;-42
2023/03/11 11:24:13;;;;;;;2.17;1.20;;;7.40;99.90;;;;;;4984563;28;20301;-42
2023/03/11 11:26:39;;;;;;;2.13;1.30;;;7.70;99.90;;;;;;5010526;28;20178;-42
2023/03/11 11:29:11;;;;;;;5.13;1.70;;;7.80;99.90;;;;;;5009542;28;20187;-42
2023/03/11 11:31:43;;;;;;;3.37;1.43;;;7.80;99.90;;;;;;4993989;28;20190;-42
2023/03/11 11:34:25;;;;;;;2.50;0.90;;;7.70;99.90;;;;;;4979906;28;20258;-42
2023/03/11 11:36:51;;;;;;;2.77;1.40;;;7.80;99.90;;;;;;5003949;28;20184;-42
2023/03/11 11:39:20;;;;;;;2.03;1.23;;;7.80;99.90;;;;;;4988635;28;20229;-37
2023/03/11 11:41:48;;;;;;;3.63;1.33;;;7.60;99.90;;;;;;4981209;28;20171;-39
2023/03/11 11:44:19;;;;;;;2.63;1.90;;;7.20;99.90;;;;;;4989847;28;20206;-39
2023/03/11 11:47:02;;;;;;;2.63;1.10;;;6.90;99.90;;;;;;4981725;28;20183;-41
2023/03/11 11:49:32;;;;;;;1.93;1.13;;;6.70;99.90;;;;;;5007280;28;20187;-41
2023/03/11 11:52:19;;;;;;;3.73;1.30;;;6.60;99.90;;;;;;4993345;28;20188;-39
2023/03/11 11:54:56;;;;;;;2.73;1.70;;;6.70;99.90;;;;;;4976910;28;20206;-41
2023/03/11 11:57:23;;;;;;;1.77;1.37;;;7.00;99.90;;;;;;4991912;28;20214;-42
2023/03/11 11:59:49;;;;;;;2.07;1.20;;;7.20;99.90;;;;;;5005256;28;20181;-38
2023/03/11 12:02:23;;;;;;;3.17;1.20;;;7.40;99.90;;;;;;5011012;28;20722;-39
2023/03/11 12:05:00;;;;;;;2.90;1.40;;;7.30;99.90;;;;;;4999601;28;20195;-39
2023/03/11 12:08:01;;;;;;;1.47;1.37;;;6.90;99.90;;;;;;5004853;28;20189;-38
2023/03/11 12:10:41;;;;;;;4.20;1.57;;;6.90;99.90;;;;;;4954663;28;20181;-40
2023/03/11 12:13:45;;;;;;;2.23;1.00;;;6.80;99.90;;;;;;4987754;28;20218;-40
2023/03/11 12:16:39;;;;;;;2.73;1.30;;;6.80;99.90;;;;;;4987531;28;20183;-41
2023/03/11 12:19:10;;;;;;;1.80;1.20;;;6.90;99.90;;;;;;5002605;28;20250;-40
2023/03/11 12:21:59;;;;;;;4.37;1.10;;;6.70;99.90;;;;;;4992993;28;20270;-38
2023/03/11 12:24:50;;;;;;;1.70;1.23;;;7.10;99.90;;;;;;4985506;28;20266;-39
2023/03/11 12:27:21;;;;;;;2.10;1.20;;;7.00;99.90;;;;;;5003845;28;20220;-41
2023/03/11 12:29:58;;;;;;;1.40;1.00;;;7.20;99.90;;;;;;4990539;28;20225;-38
2023/03/11 12:32:41;;;;;;;2.27;1.20;;;7.70;99.90;;;;;;4966819;28;20218;-41
2023/03/11 12:35:19;;;;;;;1.83;1.17;;;8.10;99.90;;;;;;5012484;28;20203;-40
2023/03/11 12:37:45;;;;;;;2.50;1.07;;;8.40;99.90;;;;;;5009363;28;20186;-41
2023/03/11 12:40:48;;;;;;;2.43;1.47;;;8.70;99.90;;;;;;4992017;28;20298;-38
2023/03/11 12:43:46;;;;;;;3.03;1.50;;;8.70;99.90;;;;;;4962122;28;20179;-40
2023/03/11 12:46:16;;;;;;;1.33;1.10;;;8.30;99.90;;;;;;4987049;28;20191;-38
2023/03/11 12:49:10;;;;;;;2.87;1.30;;;8.20;99.90;;;;;;4998199;28;20195;-39
2023/03/11 12:51:38;;;;;;;3.63;1.10;;;8.40;99.90;;;;;;5002595;23;20695;-37
2023/03/11 12:54:28;;;;;;;3.70;1.63;;;8.20;99.90;;;;;;4976403;28;20226;-39
2023/03/11 12:57:20;;;;;;;3.47;1.27;;;8.30;99.90;;;;;;4968254;28;20651;-38
2023/03/11 13:00:01;;;;;;;2.37;1.30;;;8.60;99.90;;;;;;4977065;28;20207;-37
2023/03/11 13:03:02;;;;;;;4.03;1.10;;;9.00;99.90;;;;;;4961390;28;20187;-39
2023/03/11 13:05:56;;;;;;;3.10;1.27;;;9.30;99.90;;;;;;4975438;28;20234;-38
2023/03/11 13:08:27;;;;;;;2.73;1.30;;;9.30;99.90;;;;;;4974010;28;20186;-37
2023/03/11 13:10:57;;;;;;;2.30;1.10;;;9.40;99.90;;;;;;4986195;28;20202;-37
2023/03/11 13:13:31;;;;;;;3.20;1.20;;;9.20;99.90;;;;;;4966098;28;20581;-38
2023/03/11 13:16:21;;;;;;;2.77;1.33;;;9.40;99.90;;;;;;4953721;28;20258;-40